Nearby METAR Reports

 

KSFO - San Francisco, California, USA
Distance from station: NNW 8km
Updated: Mon, 19-Nov-2018 11:56am PST
Haze, Smoke, Mostly cloudy
Haze, Smoke, Mostly cloudy
 Wind from calm
Wind: Calm
Temperature: 61°F , 16°C
Dew Point: 46°F , 8°C
Humidity: 59%
Barometer: 30.03 inHg , 1016.9 hPa
Summary: Haze, Smoke
Clouds: Mostly cloudy
Visibility: 2 miles , 3 km
Cloud details: Few Clouds 400 ft
Partly cloudy 1600 ft
Mostly cloudy 18000 ft
2018/11/19 19:56 KSFO 191956Z 00000KT 2SM HZ FU FEW004 SCT016 BKN180 16/08 A3003 RMK AO2 SLP170 FU T01610078 $
KSQL - San Carlos Airpo, California, USA
Distance from station: ESE 8km
Updated: Mon, 19-Nov-2018 11:55am PST
Smoke, Haze, Mostly cloudy
Smoke, Haze, Mostly cloudy
 Wind from calm
Wind: Calm
Temperature: 59°F , 15°C
Dew Point: 37°F , 3°C
Humidity: 45%
Barometer: 30.05 inHg , 1017.6 hPa
Summary: Smoke, Haze
Clouds: Mostly cloudy
Visibility: 2 miles , 3 km
Cloud details: Mostly cloudy 18000 ft
2018/11/19 19:55 KSQL 191955Z 00000KT 2SM FU HZ BKN180 15/03 A3005
 
KHAF - Half Moon Bay, California, USA
Distance from station: WSW 15km
Updated: Mon, 19-Nov-2018 12:40pm PST
Haze, Clear
Haze, Clear
 Wind from SSE
Wind: SSE 7 mph , 11 km/h
Temperature: 59°F , 15°C
Dew Point: 50°F , 10°C
Humidity: 72%
Barometer: 30.03 inHg , 1016.9 hPa
Summary: Haze
Clouds: Clear
Visibility: 2 miles , 3 km
2018/11/19 20:40 KHAF 192040Z AUTO 15006KT 2SM HZ CLR 15/10 A3003 RMK AO2
KOAK - Oakland, California, USA
Distance from station: NNE 21km
Updated: Mon, 19-Nov-2018 11:53am PST
Haze, Smoke, Mostly cloudy
Haze, Smoke, Mostly cloudy
 Wind from SSW
Wind: SSW 3 mph , 6 km/h
Temperature: 59°F , 15°C
Dew Point: 43°F , 6°C
Humidity: 55%
Barometer: 30.05 inHg , 1017.6 hPa
Summary: Haze, Smoke
Clouds: Mostly cloudy
Visibility: 2 miles , 3 km
Cloud details: Few Clouds 1500 ft
Mostly cloudy 20000 ft
2018/11/19 19:53 KOAK 191953Z 20003KT 2SM HZ FU FEW015 BKN200 15/06 A3005 RMK AO2 TWR VIS 3 SLP177 FU FEW015 T01500056
 
KPAO - Palo Alto, California, USA
Distance from station: ESE 21km
Updated: Mon, 19-Nov-2018 10:47am PST
NOT Current
Smoke, Few clouds
Smoke, Few clouds
 Wind from calm
Wind: Calm
Temperature: 57°F , 14°C
Dew Point: 46°F , 8°C
Humidity: 67%
Barometer: 30.08 inHg , 1018.6 hPa
Summary: Smoke
Clouds: Few Clouds
Visibility: 2 1/2 miles , 4 km
Cloud details: Few Clouds 12000 ft
2018/11/19 18:47 KPAO 191847Z 00000KT 2 1/2SM FU FEW120 14/08 A3008
KHWD - Hayward, California, USA
Distance from station: NE 23km
Updated: Mon, 19-Nov-2018 11:54am PST
Haze, Smoke, Clear
Haze, Smoke, Clear
 Wind from calm
Wind: Calm
Temperature: 61°F , 16°C
Dew Point: 43°F , 6°C
Humidity: 52%
Barometer: 30.04 inHg , 1017.3 hPa
Summary: Haze, Smoke
Clouds: Clear
Visibility: 2 miles , 3 km
2018/11/19 19:54 KHWD 191954Z 00000KT 2SM HZ FU CLR 16/06 A3004 RMK AO2 SLP182 T01610061
 
KNUQ - Moffett Nas/Mtn, California, USA
Distance from station: ESE 30km
Updated: Mon, 19-Nov-2018 11:56am PST
Smoke, Clear
Smoke, Clear
 Wind from NNW
Wind: NNW 5 mph , 7 km/h
Temperature: 63°F , 17°C
Dew Point: 45°F , 7°C
Humidity: 52%
Barometer: 30.04 inHg , 1017.3 hPa
Summary: Smoke
Clouds: Clear
Visibility: 2 1/2 miles , 4 km
2018/11/19 19:56 KNUQ 191956Z 34004KT 2 1/2SM FU CLR 17/07 A3004 RMK AO2 SLP176 T01720072
KSJC - San Jose, California, USA
Distance from station: ESE 42km
Updated: Mon, 19-Nov-2018 11:53am PST
Haze, Overcast
Haze, Overcast
 Wind from calm
Wind: Calm
Temperature: 63°F , 17°C
Dew Point: 39°F , 4°C
Humidity: 42%
Barometer: 30.04 inHg , 1017.3 hPa
Summary: Haze
Clouds: Overcast
Visibility: 3 miles , 5 km
Cloud details: Few Clouds 100 ft
Partly cloudy 800 ft
Overcast 2000 ft
2018/11/19 19:53 KSJC 191953Z 00000KT 3SM HZ FEW001 SCT008 OVC020 17/04 A3004 RMK AO2 SLP171 FU FEW001 FU SCT008 FU OVC020 T01720044
 
KLVK - Livermore, California, USA
Distance from station: ENE 49km
Updated: Mon, 19-Nov-2018 12:39pm PST
Haze, Smoke, Clear
Haze, Smoke, Clear
 Wind from ENE
Wind: ENE 12 mph , 19 km/h
Temperature: 66°F , 19°C
Dew Point: 28°F , -2°C
Humidity: 24%
Barometer: 30.02 inHg , 1016.6 hPa
Summary: Haze, Smoke
Clouds: Clear
Visibility: 3 miles , 5 km
2018/11/19 20:39 KLVK 192039Z 07010KT 3SM HZ FU CLR 19/M02 A3002 RMK AO2 T01891017
KRHV - San Jose/Reid, California, USA
Distance from station: ESE 53km
Updated: Mon, 19-Nov-2018 11:47am PST
Haze, Mostly cloudy
Haze, Mostly cloudy
 Wind from calm
Wind: Calm
Temperature: 63°F , 17°C
Dew Point: 43°F , 6°C
Humidity: 49%
Barometer: 30.03 inHg , 1016.9 hPa
Summary: Haze
Clouds: Mostly cloudy
Visibility: 4 miles , 6 km
Cloud details: Mostly cloudy 6000 ft
2018/11/19 19:47 KRHV 191947Z 00000KT 4SM HZ BKN060 17/06 A3003
 
KCCR - Concord, California, USA
Distance from station: NNE 56km
Updated: Mon, 19-Nov-2018 11:53am PST
Haze, Smoke, Overcast
Haze, Smoke, Overcast
 Wind from NE
Wind: NE 6 mph , 9 km/h
Temperature: 64°F , 18°C
Dew Point: 30°F , -1°C
Humidity: 28%
Barometer: 30.06 inHg , 1017.9 hPa
Summary: Haze, Smoke
Clouds: Overcast
Visibility: 2 miles , 3 km
Cloud details: Overcast 1900 ft
2018/11/19 19:53 KCCR 191953Z 05005KT 2SM HZ FU OVC019 18/M01 A3006 RMK AO2 SLP164 T01831011
KDVO - Novato/Gnoss Fld, California, USA
Distance from station: NNW 70km
Updated: Mon, 19-Nov-2018 12:35pm PST
Haze, Clear
Haze, Clear
 Wind from S
Wind: S 8 mph , 13 km/h
Temperature: 63°F , 17°C
Dew Point: 36°F , 2°C
Humidity: 37%
Barometer: 30.03 inHg , 1016.9 hPa
Summary: Haze
Clouds: Clear
Visibility: 4 miles , 6 km
2018/11/19 20:35 KDVO 192035Z AUTO 19007KT 4SM HZ CLR 17/02 A3003 RMK AO2
 
KAPC - Napa, California, USA
Distance from station: N 73km
Updated: Mon, 19-Nov-2018 11:54am PST
Haze, Smoke, Clear
Haze, Smoke, Clear
 Wind from E
Wind: E 13 mph , 20 km/h
Temperature: 64°F , 18°C
Dew Point: 32°F , 0°C
Humidity: 30%
Barometer: 30.04 inHg , 1017.3 hPa
Summary: Haze, Smoke
Clouds: Clear
Visibility: 4 miles , 6 km
2018/11/19 19:54 KAPC 191954Z 09011KT 4SM HZ FU CLR 18/00 A3004 RMK AO2 SLP164 T01780000